Time;durP1;ratioP1;P1;durP2;ratioP2;P2;SDS_P1;SDS_P2;PMS_P1;PMS_P2;Temp;Humidity;BMP_temperature;BMP_pressure;BME280_temperature;BME280_humidity;BME280_pressure;Samples;Min_cycle;Max_cycle;Signal;HPM_P1;HPM_P2
2022/04/21 00:01:03;;;;;;;5.03;2.83;;;11.30;99.90;;;;;;5037735;28;20215;-72
2022/04/21 00:03:30;;;;;;;5.93;3.03;;;11.30;99.90;;;;;;5045579;28;20195;-73
2022/04/21 00:05:57;;;;;;;10.37;3.33;;;11.30;99.90;;;;;;5042642;28;20215;-72
2022/04/21 00:08:23;;;;;;;6.77;2.73;;;11.20;99.90;;;;;;5030760;28;20212;-72
2022/04/21 00:10:50;;;;;;;5.40;2.93;;;11.20;99.90;;;;;;5040494;28;20188;-72
2022/04/21 00:13:18;;;;;;;4.57;2.90;;;11.20;99.90;;;;;;5052629;28;20203;-72
2022/04/21 00:15:45;;;;;;;4.97;2.90;;;11.20;99.90;;;;;;5027989;28;20226;-73
2022/04/21 00:18:11;;;;;;;5.87;3.27;;;11.20;99.90;;;;;;5044865;28;20198;-72
2022/04/21 00:20:38;;;;;;;9.90;3.43;;;11.10;99.90;;;;;;5029804;28;20283;-72
2022/04/21 00:25:51;;;;;;;5.80;3.30;;;11.10;99.90;;;;;;5040981;28;20202;-73
2022/04/21 00:28:17;;;;;;;10.77;3.30;;;11.10;99.90;;;;;;5058825;28;20227;-73
2022/04/21 00:30:45;;;;;;;4.97;2.90;;;11.00;99.90;;;;;;5061357;28;20192;-72
2022/04/21 00:33:12;;;;;;;6.13;3.00;;;11.10;99.90;;;;;;5029678;28;20337;-72
2022/04/21 00:35:38;;;;;;;8.03;2.60;;;11.00;99.90;;;;;;5030191;28;20206;-72
2022/04/21 00:38:08;;;;;;;4.10;2.60;;;11.00;99.90;;;;;;5029321;28;20226;-72
2022/04/21 00:40:35;;;;;;;5.40;2.53;;;11.00;99.90;;;;;;5048256;28;20647;-73
2022/04/21 00:43:01;;;;;;;7.53;2.77;;;11.00;99.90;;;;;;5048282;28;20192;-72
2022/04/21 00:45:29;;;;;;;7.03;2.40;;;11.00;99.90;;;;;;5040680;28;20203;-72
2022/04/21 00:47:58;;;;;;;6.40;2.40;;;11.00;99.90;;;;;;5021257;28;20636;-72
2022/04/21 00:50:33;;;;;;;3.23;2.53;;;11.00;99.90;;;;;;5036069;28;20196;-72
2022/04/21 00:53:03;;;;;;;6.17;2.40;;;11.00;99.90;;;;;;5048415;28;20188;-72
2022/04/21 00:55:31;;;;;;;4.63;2.20;;;10.90;99.90;;;;;;5043920;28;20210;-73
2022/04/21 00:58:01;;;;;;;4.40;2.37;;;10.90;99.90;;;;;;5040620;28;20889;-73
2022/04/21 01:00:29;;;;;;;4.20;2.90;;;10.90;99.90;;;;;;5025420;28;20723;-73
2022/04/21 01:02:57;;;;;;;5.47;2.33;;;10.90;99.90;;;;;;5037146;28;20188;-72
2022/04/21 01:05:32;;;;;;;5.53;2.80;;;10.90;99.90;;;;;;5037610;28;20192;-73
2022/04/21 01:08:03;;;;;;;9.67;2.90;;;10.90;99.90;;;;;;5033947;28;20664;-72
2022/04/21 01:10:36;;;;;;;7.13;2.90;;;10.90;99.90;;;;;;5032528;28;20194;-72
2022/04/21 01:13:06;;;;;;;4.47;2.93;;;10.90;99.90;;;;;;5055092;28;20192;-72
2022/04/21 01:15:33;;;;;;;8.57;2.77;;;10.90;99.90;;;;;;5040872;28;20365;-72
2022/04/21 01:17:59;;;;;;;3.33;2.17;;;10.80;99.90;;;;;;5030095;28;20199;-72
2022/04/21 01:20:26;;;;;;;6.03;2.60;;;10.80;99.90;;;;;;5024441;28;20218;-72
2022/04/21 01:22:54;;;;;;;4.93;2.77;;;10.80;99.90;;;;;;5042444;28;20279;-72
2022/04/21 01:25:25;;;;;;;5.80;2.73;;;10.80;99.90;;;;;;5049574;28;20668;-72
2022/04/21 01:27:57;;;;;;;6.60;2.37;;;10.80;99.90;;;;;;5041378;28;20211;-72
2022/04/21 01:30:24;;;;;;;6.10;2.43;;;10.80;99.90;;;;;;5047405;28;20191;-72
2022/04/21 01:32:51;;;;;;;4.00;2.40;;;10.80;99.90;;;;;;5041481;28;20296;-72
2022/04/21 01:35:18;;;;;;;6.77;2.70;;;10.80;99.90;;;;;;5024590;28;20225;-72
2022/04/21 01:43:15;;;;;;;4.37;2.40;;;10.70;99.90;;;;;;5040439;28;20275;-73
2022/04/21 01:45:43;;;;;;;4.50;2.00;;;10.70;99.90;;;;;;5047530;28;20222;-72
2022/04/21 01:48:09;;;;;;;5.60;2.67;;;10.70;99.90;;;;;;5044322;28;20243;-72
2022/04/21 01:50:35;;;;;;;11.23;2.47;;;10.70;99.90;;;;;;5014872;28;20188;-72
2022/04/21 01:53:02;;;;;;;5.27;2.30;;;10.60;99.90;;;;;;5033031;28;20648;-72
2022/04/21 01:55:28;;;;;;;3.53;2.30;;;10.60;99.90;;;;;;5041171;28;20211;-73
2022/04/21 01:57:56;;;;;;;5.17;2.33;;;10.60;99.90;;;;;;5042948;28;20278;-73
2022/04/21 02:00:23;;;;;;;2.97;2.20;;;10.60;99.90;;;;;;5027396;28;20204;-72
2022/04/21 02:02:52;;;;;;;3.43;2.00;;;10.60;99.90;;;;;;5044848;28;20222;-72
2022/04/21 02:05:19;;;;;;;8.50;2.63;;;10.60;99.90;;;;;;5046192;28;20198;-72
2022/04/21 02:07:46;;;;;;;3.80;2.10;;;10.60;99.90;;;;;;5045787;28;20216;-72
2022/04/21 02:10:16;;;;;;;6.03;2.33;;;10.60;99.90;;;;;;5033983;28;20249;-72
2022/04/21 02:12:42;;;;;;;4.27;1.90;;;10.60;99.90;;;;;;5028527;28;20653;-72
2022/04/21 02:15:10;;;;;;;4.00;2.30;;;10.50;99.90;;;;;;5034817;28;20191;-72
2022/04/21 02:17:36;;;;;;;4.60;2.13;;;10.50;99.90;;;;;;5033057;28;20246;-72
2022/04/21 02:20:10;;;;;;;5.77;2.30;;;10.50;99.90;;;;;;5036863;28;20199;-72
2022/04/21 02:22:47;;;;;;;6.90;2.30;;;10.50;99.90;;;;;;5048865;28;20188;-72
2022/04/21 02:25:16;;;;;;;5.63;2.33;;;10.50;99.90;;;;;;5039505;28;20199;-72
2022/04/21 02:27:46;;;;;;;5.93;2.20;;;10.50;99.90;;;;;;5038045;28;20218;-73
2022/04/21 02:30:17;;;;;;;4.37;2.50;;;10.50;99.90;;;;;;5019840;28;20275;-72
2022/04/21 02:32:44;;;;;;;5.40;2.67;;;10.50;99.90;;;;;;5046045;28;20269;-72
2022/04/21 02:35:12;;;;;;;4.33;2.27;;;10.50;99.90;;;;;;5034280;28;20183;-72
2022/04/21 02:37:43;;;;;;;4.13;2.27;;;10.50;99.90;;;;;;5025201;28;20200;-72
2022/04/21 02:40:11;;;;;;;5.43;2.30;;;10.40;99.90;;;;;;5049516;28;20196;-72
2022/04/21 02:42:38;;;;;;;4.53;2.23;;;10.40;99.90;;;;;;5049457;28;20195;-73
2022/04/21 02:45:10;;;;;;;7.43;2.13;;;10.40;99.90;;;;;;5057336;28;20207;-72
2022/04/21 02:47:45;;;;;;;6.40;2.57;;;10.40;99.90;;;;;;5036236;28;20223;-72
2022/04/21 02:50:17;;;;;;;6.47;2.23;;;10.40;99.90;;;;;;5034174;28;20182;-72
2022/04/21 02:52:44;;;;;;;6.83;2.40;;;10.40;99.90;;;;;;5041348;28;20195;-72
2022/04/21 02:57:58;;;;;;;3.17;2.20;;;10.50;99.90;;;;;;5048778;28;20992;-72
2022/04/21 03:00:25;;;;;;;8.93;2.80;;;10.50;99.90;;;;;;5049033;28;20203;-72
2022/04/21 03:02:51;;;;;;;8.57;3.00;;;10.50;99.90;;;;;;5053909;28;20187;-72
2022/04/21 03:05:18;;;;;;;5.10;2.40;;;10.50;99.90;;;;;;5030185;28;20691;-72
2022/04/21 03:07:44;;;;;;;4.67;2.30;;;10.50;99.90;;;;;;5033695;28;20215;-72
2022/04/21 03:10:11;;;;;;;7.00;2.90;;;10.50;99.90;;;;;;5050621;28;20274;-72
2022/04/21 03:12:37;;;;;;;9.33;2.53;;;10.50;99.90;;;;;;5052548;28;20361;-72
2022/04/21 03:15:04;;;;;;;7.87;2.70;;;10.50;99.90;;;;;;5034503;28;20692;-72
2022/04/21 03:17:31;;;;;;;8.07;2.43;;;10.50;99.90;;;;;;5036768;28;20196;-72
2022/04/21 03:19:58;;;;;;;3.90;2.50;;;10.50;99.90;;;;;;5045619;28;20203;-72
2022/04/21 03:25:10;;;;;;;6.63;2.40;;;10.60;99.90;;;;;;5043497;28;20195;-72
2022/04/21 03:27:37;;;;;;;5.57;2.90;;;10.60;99.90;;;;;;5029619;28;20215;-72
2022/04/21 03:30:06;;;;;;;7.23;2.80;;;10.60;99.90;;;;;;5044736;28;20188;-72
2022/04/21 03:32:33;;;;;;;4.73;2.70;;;10.70;99.90;;;;;;5036061;28;20214;-72
2022/04/21 03:35:00;;;;;;;9.10;2.77;;;10.70;99.90;;;;;;5046874;28;20180;-72
2022/04/21 03:37:27;;;;;;;5.63;2.20;;;10.70;99.90;;;;;;5043168;28;20229;-72
2022/04/21 03:39:54;;;;;;;8.57;2.70;;;10.70;99.90;;;;;;5048740;28;20203;-72
2022/04/21 03:42:32;;;;;;;5.67;2.40;;;10.70;99.90;;;;;;5049142;28;20222;-72
2022/04/21 03:44:59;;;;;;;8.10;2.80;;;10.70;99.90;;;;;;5031827;28;20272;-72
2022/04/21 03:47:27;;;;;;;6.00;2.47;;;10.70;99.90;;;;;;5031433;28;20653;-72
2022/04/21 03:49:53;;;;;;;7.53;2.43;;;10.70;99.90;;;;;;5047231;28;20282;-72
2022/04/21 03:52:19;;;;;;;8.83;2.90;;;10.80;99.90;;;;;;5038051;28;20184;-72
2022/04/21 03:54:46;;;;;;;6.23;2.50;;;10.80;99.90;;;;;;5019267;28;20196;-72
2022/04/21 03:57:12;;;;;;;7.00;2.33;;;10.80;99.90;;;;;;5031237;28;20196;-72
2022/04/21 03:59:39;;;;;;;6.10;2.40;;;10.70;99.90;;;;;;5044127;28;20202;-72
2022/04/21 04:02:05;;;;;;;4.70;2.23;;;10.70;99.90;;;;;;5025093;28;20199;-73
2022/04/21 04:04:38;;;;;;;6.00;2.20;;;10.70;99.90;;;;;;5042039;28;20564;-72
2022/04/21 04:12:40;;;;;;;4.93;2.80;;;10.80;99.90;;;;;;5043046;28;20188;-72
2022/04/21 04:15:09;;;;;;;4.77;2.40;;;10.70;99.90;;;;;;5059323;28;20199;-72
2022/04/21 04:17:36;;;;;;;4.70;2.43;;;10.80;99.90;;;;;;5044640;28;20196;-72
2022/04/21 04:20:07;;;;;;;7.90;2.50;;;10.80;99.90;;;;;;5049618;28;20700;-72
2022/04/21 04:22:41;;;;;;;5.97;2.40;;;10.80;99.90;;;;;;5022712;28;20223;-72
2022/04/21 04:25:11;;;;;;;9.63;2.90;;;10.80;99.90;;;;;;5023844;28;20195;-72
2022/04/21 04:27:38;;;;;;;12.63;3.23;;;10.80;99.90;;;;;;5029202;28;20586;-72
2022/04/21 04:30:07;;;;;;;6.87;3.10;;;10.80;99.90;;;;;;5036866;28;20184;-72
2022/04/21 04:32:35;;;;;;;8.70;2.90;;;10.80;99.90;;;;;;5040448;28;20218;-73
2022/04/21 04:35:02;;;;;;;7.40;2.60;;;10.80;99.90;;;;;;5033824;28;20195;-72
2022/04/21 04:37:29;;;;;;;6.77;2.77;;;10.80;99.90;;;;;;5046129;28;20188;-73
2022/04/21 04:39:55;;;;;;;9.07;3.50;;;10.80;99.90;;;;;;5027645;28;20668;-72
2022/04/21 04:42:23;;;;;;;6.33;2.63;;;10.80;99.90;;;;;;5028953;28;20191;-72
2022/04/21 04:47:43;;;;;;;6.30;2.70;;;10.90;99.90;;;;;;5041199;28;20222;-72
2022/04/21 04:50:10;;;;;;;4.60;2.20;;;11.00;99.90;;;;;;5050443;28;20188;-73
2022/04/21 04:52:37;;;;;;;6.80;3.00;;;11.00;99.90;;;;;;5041074;28;20408;-72
2022/04/21 04:55:07;;;;;;;5.63;2.53;;;11.10;99.90;;;;;;5044128;28;20234;-72
2022/04/21 04:57:33;;;;;;;5.17;2.30;;;11.10;99.90;;;;;;5055531;28;20249;-73
2022/04/21 05:00:00;;;;;;;5.73;2.50;;;11.10;99.90;;;;;;5041242;28;20258;-72
2022/04/21 05:02:26;;;;;;;4.90;2.50;;;11.20;99.90;;;;;;5049587;28;20196;-73
2022/04/21 05:04:56;;;;;;;7.80;2.70;;;11.30;99.90;;;;;;5052814;28;20196;-73
2022/04/21 05:07:23;;;;;;;7.93;2.80;;;11.30;99.90;;;;;;5041743;28;20212;-72
2022/04/21 05:09:51;;;;;;;7.97;2.90;;;11.30;99.90;;;;;;5047094;28;20276;-73
2022/04/21 05:12:18;;;;;;;6.10;2.40;;;11.30;99.90;;;;;;5031280;28;20191;-72
2022/04/21 05:14:45;;;;;;;4.67;2.10;;;11.40;99.90;;;;;;5030366;28;20194;-72
2022/04/21 05:17:12;;;;;;;5.10;2.40;;;11.40;99.90;;;;;;5032086;28;20191;-73
2022/04/21 05:19:42;;;;;;;8.97;2.67;;;11.40;99.90;;;;;;5036646;28;20313;-73
2022/04/21 05:22:13;;;;;;;6.97;3.00;;;11.50;99.90;;;;;;5036943;28;20784;-73
2022/04/21 05:24:46;;;;;;;4.90;2.60;;;11.50;99.90;;;;;;5033355;28;20198;-73
2022/04/21 05:27:13;;;;;;;5.53;2.37;;;11.50;99.90;;;;;;5038417;28;20227;-73
2022/04/21 05:32:31;;;;;;;6.43;2.20;;;11.80;99.90;;;;;;5041397;28;20211;-73
2022/04/21 05:34:58;;;;;;;9.83;2.70;;;11.80;99.90;;;;;;5039983;28;20187;-73
2022/04/21 05:37:27;;;;;;;7.47;2.20;;;11.80;99.90;;;;;;5043780;28;20191;-73
2022/04/21 05:40:00;;;;;;;5.80;2.00;;;11.80;99.90;;;;;;5041118;28;20260;-73
2022/04/21 05:42:28;;;;;;;6.50;2.30;;;11.90;99.90;;;;;;5023364;28;20199;-72
2022/04/21 05:44:56;;;;;;;10.27;2.30;;;11.90;99.90;;;;;;5032366;28;20191;-74
2022/04/21 05:47:24;;;;;;;3.13;2.00;;;11.90;99.90;;;;;;5041801;28;20557;-72
2022/04/21 05:49:51;;;;;;;5.13;2.00;;;12.00;99.90;;;;;;5037881;28;20187;-73
2022/04/21 05:52:27;;;;;;;8.00;2.27;;;12.00;99.90;;;;;;5024830;28;20195;-73
2022/04/21 05:54:53;;;;;;;8.27;2.50;;;12.00;99.90;;;;;;5055005;28;20525;-72
2022/04/21 05:57:20;;;;;;;7.67;2.17;;;12.10;99.90;;;;;;5032748;28;20226;-72
2022/04/21 05:59:46;;;;;;;6.73;2.50;;;12.10;99.90;;;;;;5038713;28;20187;-73
2022/04/21 06:02:15;;;;;;;7.97;2.43;;;12.20;99.90;;;;;;5020710;28;20540;-73
2022/04/21 06:04:41;;;;;;;7.63;2.10;;;12.30;99.90;;;;;;5043186;28;20188;-73
2022/04/21 06:07:08;;;;;;;5.27;2.00;;;12.30;99.90;;;;;;5039127;28;20299;-72
2022/04/21 06:09:35;;;;;;;10.80;2.37;;;12.40;99.90;;;;;;5037341;28;20214;-72
2022/04/21 06:12:04;;;;;;;9.10;2.23;;;12.50;99.90;;;;;;5042916;28;20196;-72
2022/04/21 06:14:34;;;;;;;4.27;1.83;;;12.50;99.90;;;;;;5038300;28;20199;-72
2022/04/21 06:17:01;;;;;;;10.27;2.30;;;12.50;99.90;;;;;;5042075;28;20231;-73
2022/04/21 06:19:27;;;;;;;7.47;2.17;;;12.60;99.90;;;;;;5048465;28;20210;-73
2022/04/21 06:22:05;;;;;;;5.73;1.93;;;12.70;99.90;;;;;;5044036;28;20246;-73
2022/04/21 06:24:31;;;;;;;7.77;2.20;;;12.80;99.90;;;;;;5022943;28;20627;-72
2022/04/21 06:26:59;;;;;;;11.13;2.40;;;13.10;99.90;;;;;;5029933;28;20294;-73
2022/04/21 06:29:26;;;;;;;8.73;1.83;;;13.10;99.90;;;;;;5022114;28;20207;-73
2022/04/21 06:31:52;;;;;;;13.03;3.07;;;13.10;99.90;;;;;;5044184;28;20230;-73
2022/04/21 06:34:19;;;;;;;6.40;2.90;;;13.10;99.90;;;;;;5040102;28;20703;-73
2022/04/21 06:36:47;;;;;;;4.37;1.80;;;13.10;99.90;;;;;;5039585;28;20196;-73
2022/04/21 06:39:13;;;;;;;5.77;1.90;;;13.10;99.90;;;;;;5043456;28;20218;-73
2022/04/21 06:41:39;;;;;;;6.10;2.17;;;13.10;99.90;;;;;;5038910;28;20242;-73
2022/04/21 06:49:37;;;;;;;5.70;1.70;;;13.20;99.90;;;;;;5037296;28;20212;-74
2022/04/21 06:52:05;;;;;;;7.37;2.37;;;13.30;99.90;;;;;;5033676;28;20219;-73
2022/04/21 06:54:31;;;;;;;9.07;2.03;;;13.40;99.90;;;;;;5036087;28;20333;-73
2022/04/21 06:56:58;;;;;;;7.23;1.70;;;13.40;99.90;;;;;;5030890;28;20538;-73
2022/04/21 06:59:24;;;;;;;10.60;2.13;;;13.50;99.90;;;;;;5028470;28;20207;-73
2022/04/21 07:01:53;;;;;;;5.17;2.00;;;13.50;99.90;;;;;;5039851;28;20196;-74
2022/04/21 07:04:20;;;;;;;5.97;1.67;;;13.60;99.90;;;;;;5037472;28;20199;-74
2022/04/21 07:06:47;;;;;;;6.47;2.10;;;13.60;99.90;;;;;;5033645;28;20226;-74
2022/04/21 07:09:15;;;;;;;6.30;1.80;;;13.60;99.90;;;;;;5018474;28;20522;-73
2022/04/21 07:11:44;;;;;;;8.03;1.97;;;13.70;99.90;;;;;;5017773;28;20211;-74
2022/04/21 07:14:13;;;;;;;5.03;1.70;;;13.70;99.90;;;;;;5039949;28;20220;-73
2022/04/21 07:16:40;;;;;;;6.27;2.50;;;13.70;99.90;;;;;;5035589;28;20606;-72
2022/04/21 07:19:06;;;;;;;5.90;1.90;;;13.70;99.90;;;;;;5033421;28;20191;-73
2022/04/21 07:21:35;;;;;;;8.03;2.30;;;13.80;99.90;;;;;;5037597;28;20218;-73
2022/04/21 07:24:06;;;;;;;9.83;2.70;;;13.90;99.90;;;;;;5042466;28;20190;-73
2022/04/21 07:26:33;;;;;;;9.87;2.03;;;13.90;99.90;;;;;;5023773;28;20207;-73
2022/04/21 07:29:02;;;;;;;7.17;2.00;;;14.00;99.90;;;;;;5036933;28;21046;-73
2022/04/21 07:31:32;;;;;;;7.20;1.60;;;14.10;99.90;;;;;;5039954;28;20188;-73
2022/04/21 07:34:24;;;;;;;6.27;2.00;;;14.10;99.90;;;;;;5049551;28;20228;-73
2022/04/21 07:36:51;;;;;;;7.23;2.03;;;14.20;99.90;;;;;;5049290;28;20198;-73
2022/04/21 07:39:23;;;;;;;6.47;2.30;;;14.20;99.90;;;;;;5044706;28;20198;-74
2022/04/21 07:41:51;;;;;;;4.93;1.73;;;14.30;99.90;;;;;;5031275;28;20203;-73
2022/04/21 07:44:19;;;;;;;3.33;1.80;;;14.40;99.90;;;;;;5041466;28;20216;-73
2022/04/21 07:46:51;;;;;;;4.30;1.47;;;14.40;99.90;;;;;;5022330;28;20196;-73
2022/04/21 07:55:23;;;;;;;4.87;1.93;;;14.60;99.90;;;;;;5035056;28;20191;-74
2022/04/21 07:57:57;;;;;;;6.27;1.80;;;14.60;99.90;;;;;;5035310;28;20188;-73
2022/04/21 08:00:25;;;;;;;6.10;1.80;;;14.70;99.90;;;;;;5048510;28;20207;-73
2022/04/21 08:02:51;;;;;;;6.37;1.73;;;14.80;99.90;;;;;;5036764;28;20262;-73
2022/04/21 08:05:21;;;;;;;4.53;1.97;;;14.80;99.90;;;;;;5021096;28;20675;-73
2022/04/21 08:08:03;;;;;;;10.30;2.63;;;14.90;99.90;;;;;;5024551;28;20231;-74
2022/04/21 08:10:30;;;;;;;11.43;2.00;;;15.00;99.90;;;;;;5050126;28;20246;-74
2022/04/21 08:12:59;;;;;;;9.83;2.17;;;15.10;99.90;;;;;;5038146;28;20183;-73
2022/04/21 08:15:33;;;;;;;7.10;1.97;;;15.10;99.90;;;;;;5037686;28;20203;-73
2022/04/21 08:18:03;;;;;;;5.23;1.90;;;15.20;99.90;;;;;;5035846;28;20191;-73
2022/04/21 08:20:33;;;;;;;6.23;2.07;;;15.30;99.90;;;;;;5041512;28;20283;-73
2022/04/21 08:23:02;;;;;;;8.27;1.90;;;15.30;99.90;;;;;;5018763;28;20199;-73
2022/04/21 08:33:57;;;;;;;5.43;1.80;;;15.60;99.90;;;;;;5028672;28;20278;-72
2022/04/21 08:36:26;;;;;;;8.03;1.80;;;15.70;99.90;;;;;;5035687;28;20745;-72
2022/04/21 08:38:54;;;;;;;10.00;1.90;;;15.80;99.90;;;;;;5044438;28;20201;-73
2022/04/21 08:41:26;;;;;;;5.63;2.10;;;15.80;99.90;;;;;;5022825;28;20195;-73
2022/04/21 08:43:56;;;;;;;5.10;2.10;;;15.90;99.90;;;;;;5037956;28;20207;-73
2022/04/21 08:46:34;;;;;;;9.80;2.37;;;15.90;99.90;;;;;;5041858;28;20508;-73
2022/04/21 08:49:04;;;;;;;13.30;1.90;;;16.00;99.90;;;;;;5043128;28;20234;-73
2022/04/21 08:51:37;;;;;;;7.17;1.87;;;16.10;99.90;;;;;;5042886;28;20198;-73
2022/04/21 08:54:05;;;;;;;4.40;1.77;;;16.10;99.90;;;;;;5045098;28;20211;-74
2022/04/21 08:56:33;;;;;;;6.87;2.03;;;16.20;99.90;;;;;;5042960;28;20204;-73
2022/04/21 08:59:02;;;;;;;7.10;1.80;;;16.30;99.90;;;;;;5048826;28;20199;-73
2022/04/21 09:01:30;;;;;;;6.13;1.90;;;16.40;99.90;;;;;;5056715;28;20286;-73
2022/04/21 09:03:59;;;;;;;9.77;2.27;;;16.40;99.90;;;;;;5052621;28;20192;-72
2022/04/21 09:06:27;;;;;;;11.60;2.17;;;16.50;99.90;;;;;;5033822;28;20194;-73
2022/04/21 09:09:21;;;;;;;8.60;2.33;;;16.60;99.90;;;;;;5050656;28;20212;-73
2022/04/21 09:11:53;;;;;;;7.10;1.83;;;16.70;99.90;;;;;;5040408;28;20197;-73
2022/04/21 09:14:22;;;;;;;6.60;2.10;;;16.70;99.90;;;;;;5038660;28;20195;-73
2022/04/21 09:16:49;;;;;;;7.87;1.80;;;16.80;99.90;;;;;;5039332;28;20196;-73
2022/04/21 09:19:17;;;;;;;8.87;1.93;;;16.90;99.90;;;;;;5037506;28;20188;-73
2022/04/21 09:21:43;;;;;;;13.03;2.07;;;17.00;99.90;;;;;;5029081;28;20183;-73
2022/04/21 09:24:28;;;;;;;8.27;1.87;;;17.00;99.90;;;;;;5036108;28;20257;-73
2022/04/21 09:27:02;;;;;;;6.70;2.10;;;17.10;99.90;;;;;;5019978;28;20192;-73
2022/04/21 09:29:31;;;;;;;6.93;1.80;;;17.20;99.90;;;;;;5026350;28;20196;-74
2022/04/21 09:32:04;;;;;;;7.87;2.40;;;17.30;99.90;;;;;;5040454;28;20211;-74
2022/04/21 09:34:31;;;;;;;6.00;2.30;;;17.40;99.90;;;;;;5023657;28;20199;-74
2022/04/21 09:36:59;;;;;;;7.50;2.13;;;17.40;99.90;;;;;;5035761;28;20192;-73
2022/04/21 09:39:28;;;;;;;9.13;2.00;;;17.50;99.90;;;;;;5032973;28;20199;-73
2022/04/21 09:41:56;;;;;;;5.17;2.00;;;17.60;99.90;;;;;;5034237;28;20214;-72
2022/04/21 09:47:28;;;;;;;8.07;1.93;;;17.80;99.90;;;;;;5035046;28;20605;-73
2022/04/21 09:49:57;;;;;;;4.97;1.60;;;17.90;99.90;;;;;;5032911;28;20188;-73
2022/04/21 09:52:31;;;;;;;8.13;1.93;;;18.00;99.90;;;;;;5021734;28;20608;-72
2022/04/21 09:54:57;;;;;;;4.33;1.63;;;18.10;99.90;;;;;;5047868;28;20238;-73
2022/04/21 09:57:31;;;;;;;6.57;1.97;;;18.20;99.90;;;;;;5034097;28;20214;-74
2022/04/21 09:59:59;;;;;;;6.03;1.70;;;18.30;99.90;;;;;;5043797;28;20420;-73
2022/04/21 10:02:30;;;;;;;7.57;1.83;;;18.30;99.90;;;;;;5022085;28;20196;-72
2022/04/21 10:04:58;;;;;;;4.50;1.70;;;18.40;99.90;;;;;;5029460;28;20287;-73
2022/04/21 10:07:26;;;;;;;9.07;2.20;;;18.40;99.90;;;;;;5023748;28;20219;-73
2022/04/21 10:09:55;;;;;;;12.17;2.30;;;18.50;99.90;;;;;;5030546;28;20277;-73
2022/04/21 10:13:12;;;;;;;6.47;1.60;;;18.50;99.90;;;;;;5029209;28;20191;-73
2022/04/21 10:15:39;;;;;;;7.37;1.90;;;18.60;99.90;;;;;;5020685;28;20191;-73
2022/04/21 10:18:24;;;;;;;8.60;1.67;;;18.60;99.90;;;;;;5039121;28;20195;-73
2022/04/21 10:20:55;;;;;;;9.47;1.97;;;18.70;99.90;;;;;;5019920;28;20285;-74
2022/04/21 10:23:43;;;;;;;8.67;2.03;;;18.70;99.90;;;;;;5022235;28;20966;-74
2022/04/21 10:26:11;;;;;;;8.53;2.00;;;18.80;99.90;;;;;;5033167;28;20650;-74
2022/04/21 10:28:46;;;;;;;6.37;1.70;;;18.80;99.90;;;;;;5048707;28;20579;-74
2022/04/21 10:31:33;;;;;;;9.37;2.10;;;18.90;99.90;;;;;;5031891;28;20202;-73
2022/04/21 10:34:07;;;;;;;10.33;1.83;;;19.00;99.90;;;;;;5044833;28;20214;-76
2022/04/21 10:36:42;;;;;;;9.30;2.40;;;19.00;99.90;;;;;;5049857;28;20195;-72
2022/04/21 10:39:18;;;;;;;10.23;1.93;;;19.00;99.90;;;;;;5038659;28;20426;-73
2022/04/21 10:41:46;;;;;;;6.40;2.30;;;19.00;99.90;;;;;;5056728;28;20188;-73
2022/04/21 10:44:26;;;;;;;11.90;2.10;;;19.00;99.90;;;;;;5022097;28;20195;-72
2022/04/21 10:47:34;;;;;;;5.97;1.63;;;19.00;99.90;;;;;;5042286;28;20199;-73
2022/04/21 10:50:23;;;;;;;6.27;1.70;;;19.00;99.90;;;;;;5044888;28;20652;-73
2022/04/21 10:58:37;;;;;;;5.73;1.80;;;19.10;99.90;;;;;;5039812;28;20249;-73
2022/04/21 11:01:28;;;;;;;6.63;1.90;;;19.20;99.90;;;;;;5046330;28;20214;-73
2022/04/21 11:04:16;;;;;;;4.93;1.83;;;19.10;99.90;;;;;;5043163;28;20275;-75
2022/04/21 11:06:48;;;;;;;10.33;1.97;;;19.20;99.90;;;;;;5038067;28;20180;-73
2022/04/21 11:09:37;;;;;;;5.37;1.70;;;19.20;99.90;;;;;;5039334;28;20192;-73
2022/04/21 11:12:09;;;;;;;10.53;1.90;;;19.10;99.90;;;;;;5035673;28;20215;-74
2022/04/21 11:14:39;;;;;;;8.13;1.87;;;19.20;99.90;;;;;;5039685;28;20187;-75
2022/04/21 11:17:08;;;;;;;5.20;1.83;;;19.20;99.90;;;;;;5027019;28;20274;-74
2022/04/21 11:19:51;;;;;;;6.77;1.87;;;19.20;99.90;;;;;;5045796;28;20175;-75
2022/04/21 11:22:40;;;;;;;6.27;1.70;;;19.30;99.90;;;;;;5045336;28;20185;-74
2022/04/21 11:25:07;;;;;;;8.47;2.13;;;19.30;99.90;;;;;;5043107;28;20176;-76
2022/04/21 11:27:59;;;;;;;7.17;1.90;;;19.30;99.90;;;;;;5038862;28;20218;-76
2022/04/21 11:30:27;;;;;;;8.13;2.30;;;19.40;99.90;;;;;;5048519;28;20267;-75
2022/04/21 11:32:57;;;;;;;7.00;1.83;;;19.40;99.90;;;;;;5044653;28;20236;-73
2022/04/21 11:35:24;;;;;;;9.07;1.90;;;19.40;99.90;;;;;;5028296;28;20260;-73
2022/04/21 11:37:58;;;;;;;10.53;1.83;;;19.40;99.90;;;;;;5037784;28;20180;-73
2022/04/21 11:40:37;;;;;;;10.47;2.20;;;19.40;99.90;;;;;;5040690;28;20184;-74
2022/04/21 11:43:17;;;;;;;7.90;1.77;;;19.40;99.90;;;;;;5025174;28;20502;-73
2022/04/21 11:46:09;;;;;;;3.87;1.90;;;19.40;99.90;;;;;;5047296;28;20269;-75
2022/04/21 11:48:41;;;;;;;7.73;1.80;;;19.40;99.90;;;;;;5040114;28;20235;-74
2022/04/21 11:51:25;;;;;;;9.40;2.00;;;19.40;99.90;;;;;;5026698;28;20180;-73
2022/04/21 11:54:02;;;;;;;7.50;1.90;;;19.40;99.90;;;;;;5031711;28;20184;-74
2022/04/21 11:56:28;;;;;;;4.93;1.80;;;19.40;99.90;;;;;;5038240;28;20188;-74
2022/04/21 11:58:55;;;;;;;6.13;1.80;;;19.40;99.90;;;;;;5034705;28;20180;-73
2022/04/21 12:07:03;;;;;;;5.87;1.43;;;19.40;99.90;;;;;;5044434;28;20536;-73
2022/04/21 12:09:33;;;;;;;4.73;1.70;;;19.40;99.90;;;;;;5023874;28;20191;-74
2022/04/21 12:12:02;;;;;;;9.33;1.80;;;19.40;99.90;;;;;;5039525;28;20192;-74
2022/04/21 12:14:39;;;;;;;4.67;2.33;;;19.50;99.90;;;;;;5047237;28;20191;-75
2022/04/21 12:17:06;;;;;;;6.40;2.20;;;19.40;99.90;;;;;;5032301;28;20188;-73
2022/04/21 12:19:46;;;;;;;6.63;1.63;;;19.40;99.90;;;;;;5056285;28;20184;-74
2022/04/21 12:22:19;;;;;;;6.27;1.77;;;19.50;99.90;;;;;;5033498;28;20180;-74
2022/04/21 12:24:55;;;;;;;4.87;1.90;;;19.40;99.90;;;;;;5034463;28;20180;-74
2022/04/21 12:27:36;;;;;;;4.83;1.87;;;19.40;99.90;;;;;;5053695;28;20195;-74
2022/04/21 12:30:09;;;;;;;5.10;1.83;;;19.40;99.90;;;;;;5032408;28;20198;-72
2022/04/21 12:32:40;;;;;;;9.33;1.90;;;19.50;99.90;;;;;;5034898;28;20234;-74
2022/04/21 12:35:10;;;;;;;6.90;1.70;;;19.40;99.90;;;;;;5041560;28;20184;-73
2022/04/21 12:37:50;;;;;;;4.87;1.70;;;19.40;99.90;;;;;;5046134;28;20202;-75
2022/04/21 12:40:16;;;;;;;6.40;1.87;;;19.40;99.90;;;;;;5025427;28;20276;-73
2022/04/21 12:42:47;;;;;;;7.03;1.80;;;19.40;99.90;;;;;;5043428;28;20191;-74
2022/04/21 12:45:14;;;;;;;7.33;1.60;;;19.30;99.90;;;;;;5030031;28;20191;-74
2022/04/21 12:47:48;;;;;;;5.73;1.67;;;19.30;99.90;;;;;;5038285;28;20207;-73
2022/04/21 12:50:23;;;;;;;4.57;1.70;;;19.30;99.90;;;;;;5044600;28;20194;-74
2022/04/21 12:52:54;;;;;;;10.27;1.93;;;19.30;99.90;;;;;;5035643;28;20278;-74
2022/04/21 12:55:29;;;;;;;6.93;1.97;;;19.40;99.90;;;;;;5022088;28;20261;-74
2022/04/21 12:58:09;;;;;;;4.83;1.70;;;19.40;99.90;;;;;;5035319;28;20184;-73
2022/04/21 13:00:40;;;;;;;9.33;1.83;;;19.30;99.90;;;;;;5049223;28;20187;-73
2022/04/21 13:03:14;;;;;;;8.33;2.23;;;19.30;99.90;;;;;;5037040;28;20184;-74
2022/04/21 13:05:55;;;;;;;6.10;2.00;;;19.30;99.90;;;;;;5040461;28;20680;-75
2022/04/21 13:08:25;;;;;;;8.50;1.80;;;19.20;99.90;;;;;;5024344;28;20214;-73
2022/04/21 13:10:57;;;;;;;6.63;1.93;;;19.20;99.90;;;;;;5047793;28;20198;-73
2022/04/21 13:13:28;;;;;;;6.33;2.00;;;19.30;99.90;;;;;;5045902;28;20316;-74
2022/04/21 13:15:55;;;;;;;6.50;1.80;;;19.20;99.90;;;;;;5041870;28;20653;-74
2022/04/21 13:18:22;;;;;;;6.43;2.07;;;19.20;99.90;;;;;;5030685;28;20188;-73
2022/04/21 13:23:33;;;;;;;12.13;2.03;;;19.20;99.90;;;;;;5037638;28;20188;-74
2022/04/21 13:26:01;;;;;;;5.87;1.80;;;19.00;99.90;;;;;;5035925;28;20191;-74
2022/04/21 13:28:28;;;;;;;7.67;2.03;;;19.10;99.90;;;;;;5039664;28;20560;-72
2022/04/21 13:33:39;;;;;;;6.87;1.90;;;19.00;99.90;;;;;;5046125;28;20192;-75
2022/04/21 13:36:16;;;;;;;7.07;1.63;;;19.00;99.90;;;;;;5042047;28;20192;-74
2022/04/21 13:38:43;;;;;;;4.20;1.70;;;18.90;99.90;;;;;;5023171;28;20194;-73
2022/04/21 13:41:11;;;;;;;16.47;1.87;;;18.90;99.90;;;;;;5026830;28;20275;-73
2022/04/21 13:43:38;;;;;;;9.23;2.03;;;18.90;99.90;;;;;;5044908;28;20215;-74
2022/04/21 13:46:04;;;;;;;8.73;2.20;;;18.80;99.90;;;;;;5028584;28;20262;-74
2022/04/21 13:48:31;;;;;;;5.23;1.97;;;18.90;99.90;;;;;;5039014;28;20751;-74
2022/04/21 13:50:59;;;;;;;4.80;1.53;;;18.80;99.90;;;;;;5063772;28;20203;-75
2022/04/21 13:53:26;;;;;;;7.17;1.97;;;18.80;99.90;;;;;;5027429;28;20626;-73
2022/04/21 13:55:56;;;;;;;14.57;1.90;;;18.70;99.90;;;;;;5041779;28;20198;-74
2022/04/21 13:58:25;;;;;;;7.80;1.83;;;18.70;99.90;;;;;;5034460;28;20631;-73
2022/04/21 14:00:51;;;;;;;7.03;2.00;;;18.70;99.90;;;;;;5045374;28;20228;-74
2022/04/21 14:03:18;;;;;;;9.23;1.83;;;18.70;99.90;;;;;;5047572;28;20250;-73
2022/04/21 14:05:44;;;;;;;5.10;1.90;;;18.60;99.90;;;;;;5031220;28;20615;-74